createdAt,value
2023-02-06T00:00:51.386Z,5.35
2023-02-06T00:03:17.914Z,5.22
2023-02-06T00:05:44.385Z,5.25
2023-02-06T00:08:10.763Z,5.18
2023-02-06T00:10:37.127Z,5.17
2023-02-06T00:13:03.515Z,5.16
2023-02-06T00:15:29.903Z,5.13
2023-02-06T00:17:56.216Z,5.19
2023-02-06T00:20:22.505Z,5.20
2023-02-06T00:22:48.807Z,5.19
2023-02-06T00:25:15.133Z,5.06
2023-02-06T00:27:41.471Z,5.11
2023-02-06T00:30:08.120Z,5.06
2023-02-06T00:32:35.331Z,5.19
2023-02-06T00:35:01.738Z,5.11
2023-02-06T00:37:28.070Z,5.18
2023-02-06T00:39:54.396Z,5.05
2023-02-06T00:42:20.786Z,5.17
2023-02-06T00:44:47.096Z,5.21
2023-02-06T00:47:14.922Z,5.20
2023-02-06T00:49:41.262Z,5.25
2023-02-06T00:52:08.771Z,5.09
2023-02-06T00:54:35.132Z,5.10
2023-02-06T00:57:01.475Z,5.05
2023-02-06T00:59:27.794Z,5.02
2023-02-06T01:01:54.214Z,5.00
2023-02-06T01:04:20.705Z,5.15
2023-02-06T01:06:47.126Z,5.17
2023-02-06T01:09:13.463Z,5.17
2023-02-06T01:11:39.792Z,5.04
2023-02-06T01:14:06.249Z,5.00
2023-02-06T01:16:32.698Z,4.93
2023-02-06T01:18:58.989Z,5.11
2023-02-06T01:21:25.569Z,5.15
2023-02-06T01:23:53.889Z,5.11
2023-02-06T01:26:22.642Z,5.16
2023-02-06T01:28:49.619Z,5.18
2023-02-06T01:31:23.255Z,5.15
2023-02-06T01:33:50.978Z,5.12
2023-02-06T01:36:18.630Z,5.06
2023-02-06T01:38:45.699Z,5.10
2023-02-06T01:41:13.839Z,5.22
2023-02-06T01:43:44.895Z,5.04
2023-02-06T01:46:11.257Z,5.09
2023-02-06T01:48:43.029Z,5.10
2023-02-06T01:51:15.009Z,5.08
2023-02-06T01:53:43.792Z,5.18
2023-02-06T01:56:11.652Z,5.17
2023-02-06T01:58:43.566Z,5.21
2023-02-06T02:01:10.905Z,5.29
2023-02-06T02:03:44.243Z,5.17
2023-02-06T02:06:14.333Z,5.31
2023-02-06T02:08:43.839Z,5.22
2023-02-06T02:11:16.208Z,5.14
2023-02-06T02:13:43.549Z,5.13
2023-02-06T02:16:35.168Z,5.16
2023-02-06T02:19:12.269Z,4.97
2023-02-06T02:22:09.658Z,5.01
2023-02-06T02:24:51.439Z,4.90
2023-02-06T02:27:36.983Z,4.73
2023-02-06T02:30:34.410Z,4.87
2023-02-06T02:33:31.803Z,4.90
2023-02-06T02:36:28.289Z,4.75
2023-02-06T02:39:17.539Z,5.10
2023-02-06T02:42:08.784Z,5.06
2023-02-06T02:44:55.858Z,5.05
2023-02-06T02:47:28.368Z,5.01
2023-02-06T02:49:57.901Z,5.16
2023-02-06T02:52:24.708Z,4.99
2023-02-06T02:54:51.048Z,5.06
2023-02-06T02:57:24.687Z,5.01
2023-02-06T02:59:51.945Z,4.99
2023-02-06T03:02:30.659Z,5.11
2023-02-06T03:05:01.957Z,5.16
2023-02-06T03:07:45.142Z,5.13
2023-02-06T03:10:30.777Z,5.15
2023-02-06T03:13:09.152Z,4.96
2023-02-06T03:15:52.997Z,4.85
2023-02-06T03:18:30.882Z,4.79
2023-02-06T03:21:00.021Z,4.85
2023-02-06T03:23:31.489Z,4.87
2023-02-06T03:26:01.955Z,5.01
2023-02-06T03:28:38.511Z,5.01
2023-02-06T03:31:09.513Z,5.06
2023-02-06T03:33:40.586Z,5.02
2023-02-06T03:36:09.892Z,5.03
2023-02-06T03:38:36.407Z,5.05
2023-02-06T03:41:04.560Z,4.96
2023-02-06T03:43:31.963Z,4.89
2023-02-06T03:46:05.500Z,4.84
2023-02-06T03:48:40.654Z,4.77
2023-02-06T03:51:16.096Z,4.72
2023-02-06T03:53:44.665Z,4.87
2023-02-06T03:56:17.168Z,4.74
2023-02-06T03:58:43.547Z,4.72
2023-02-06T04:01:11.833Z,4.78
2023-02-06T04:03:38.229Z,4.81
2023-02-06T04:06:04.596Z,4.71
2023-02-06T04:08:30.951Z,4.77
2023-02-06T04:10:57.335Z,4.72
2023-02-06T04:13:23.684Z,4.70
2023-02-06T04:15:52.463Z,4.54
2023-02-06T04:18:18.888Z,4.50
2023-02-06T04:20:45.184Z,4.43
2023-02-06T04:23:11.529Z,4.38
2023-02-06T04:25:38.137Z,4.30
2023-02-06T04:28:04.799Z,4.41
2023-02-06T04:30:31.203Z,4.32
2023-02-06T04:32:57.516Z,4.30
2023-02-06T04:35:23.912Z,4.36
2023-02-06T04:37:50.276Z,4.51
2023-02-06T04:40:16.884Z,4.42
2023-02-06T04:42:43.214Z,4.37
2023-02-06T04:45:09.652Z,4.33
2023-02-06T04:47:36.035Z,4.33
2023-02-06T04:50:03.693Z,4.30
2023-02-06T04:52:30.004Z,4.31
2023-02-06T04:54:56.366Z,4.28
2023-02-06T04:57:23.569Z,4.19
2023-02-06T04:59:49.900Z,4.26
2023-02-06T05:02:16.273Z,4.25
2023-02-06T05:04:42.661Z,4.32
2023-02-06T05:07:08.964Z,4.19
2023-02-06T05:09:35.276Z,4.13
2023-02-06T05:12:01.578Z,4.07
2023-02-06T05:14:27.923Z,4.11
2023-02-06T05:16:54.260Z,4.06
2023-02-06T05:19:20.614Z,4.10
2023-02-06T05:21:47.082Z,4.10
2023-02-06T05:24:13.413Z,3.86
2023-02-06T05:26:39.703Z,3.72
2023-02-06T05:29:07.024Z,3.78
2023-02-06T05:31:33.578Z,3.83
2023-02-06T05:33:59.975Z,3.77
2023-02-06T05:36:26.369Z,3.65
2023-02-06T05:38:52.756Z,3.66
2023-02-06T05:41:19.080Z,3.76
2023-02-06T05:43:45.573Z,3.50
2023-02-06T05:46:12.892Z,3.57
2023-02-06T05:48:39.944Z,3.53
2023-02-06T05:51:06.500Z,3.40
2023-02-06T05:53:32.844Z,3.52
2023-02-06T05:55:59.150Z,3.45
2023-02-06T05:58:25.575Z,3.41
2023-02-06T06:00:51.893Z,3.50
2023-02-06T06:03:19.024Z,3.30
2023-02-06T06:05:45.789Z,3.24
2023-02-06T06:08:12.196Z,3.28
2023-02-06T06:10:38.601Z,3.31
2023-02-06T06:13:04.941Z,3.49
2023-02-06T06:15:31.266Z,3.55
2023-02-06T06:17:57.600Z,3.58
2023-02-06T06:20:23.962Z,3.49
2023-02-06T06:22:50.561Z,3.38
2023-02-06T06:25:16.997Z,3.42
2023-02-06T06:27:43.325Z,3.30
2023-02-06T06:30:10.502Z,3.51
2023-02-06T06:32:36.868Z,3.41
2023-02-06T06:35:03.587Z,3.51
2023-02-06T06:37:30.024Z,3.28
2023-02-06T06:39:56.341Z,3.31
2023-02-06T06:42:22.633Z,3.31
2023-02-06T06:44:48.941Z,3.34
2023-02-06T06:47:15.332Z,3.11
2023-02-06T06:49:41.641Z,3.34
2023-02-06T06:52:19.542Z,3.31
2023-02-06T06:54:52.339Z,3.39
2023-02-06T06:57:19.145Z,3.36
2023-02-06T06:59:45.504Z,3.17
2023-02-06T07:02:11.860Z,3.03
2023-02-06T07:04:38.232Z,3.30
2023-02-06T07:07:04.886Z,3.21
2023-02-06T07:09:31.237Z,3.26
2023-02-06T07:11:57.559Z,3.28
2023-02-06T07:14:23.981Z,3.28
2023-02-06T07:16:50.346Z,3.23
2023-02-06T07:19:17.085Z,3.14
2023-02-06T07:21:43.594Z,3.43
2023-02-06T07:24:09.932Z,3.43
2023-02-06T07:26:36.283Z,3.37
2023-02-06T07:29:02.701Z,3.21
2023-02-06T07:31:29.178Z,3.15
2023-02-06T07:33:55.536Z,3.18
2023-02-06T07:36:21.848Z,3.17
2023-02-06T07:38:48.777Z,3.10
2023-02-06T07:41:15.921Z,3.19
2023-02-06T07:43:42.217Z,3.11
2023-02-06T07:46:08.595Z,3.08
2023-02-06T07:48:34.926Z,3.05
2023-02-06T07:51:09.319Z,3.20
2023-02-06T07:53:37.010Z,3.14
2023-02-06T07:56:10.546Z,3.19
2023-02-06T07:58:36.948Z,3.05
2023-02-06T08:01:05.350Z,2.84
2023-02-06T08:03:32.251Z,2.79
2023-02-06T08:05:58.733Z,2.92
2023-02-06T08:08:25.447Z,2.96
2023-02-06T08:10:52.245Z,2.91
2023-02-06T08:13:18.560Z,3.04
2023-02-06T08:15:44.961Z,3.17
2023-02-06T08:18:11.302Z,3.18
2023-02-06T08:20:37.620Z,3.22
2023-02-06T08:23:04.110Z,3.35
2023-02-06T08:25:30.456Z,3.47
2023-02-06T08:27:56.852Z,3.48
2023-02-06T08:30:24.186Z,3.50
2023-02-06T08:32:50.648Z,3.53
2023-02-06T08:35:17.216Z,3.54
2023-02-06T08:37:43.498Z,3.54
2023-02-06T08:40:10.585Z,3.56
2023-02-06T08:42:36.942Z,3.48
2023-02-06T08:45:03.582Z,3.49
2023-02-06T08:47:29.892Z,3.51
2023-02-06T08:49:56.217Z,3.57
2023-02-06T08:52:23.185Z,3.62
2023-02-06T08:54:51.435Z,3.63
2023-02-06T08:57:17.741Z,3.49
2023-02-06T08:59:44.155Z,3.65
2023-02-06T09:02:11.572Z,3.68
2023-02-06T09:04:38.934Z,3.64
2023-02-06T09:07:05.242Z,3.61
2023-02-06T09:09:31.573Z,3.56
2023-02-06T09:12:03.100Z,3.74
2023-02-06T09:14:30.303Z,3.67
2023-02-06T09:16:59.598Z,3.77
2023-02-06T09:19:26.363Z,3.84
2023-02-06T09:21:53.263Z,3.84
2023-02-06T09:24:19.803Z,3.78
2023-02-06T09:26:59.076Z,3.84
2023-02-06T09:29:31.565Z,3.88
2023-02-06T09:31:58.429Z,3.90
2023-02-06T09:34:26.259Z,3.84
2023-02-06T09:36:54.416Z,3.73
2023-02-06T09:39:20.767Z,3.88
2023-02-06T09:41:56.758Z,3.94
2023-02-06T09:44:39.891Z,4.02
2023-02-06T09:47:20.490Z,4.16
2023-02-06T09:49:59.253Z,4.15
2023-02-06T09:52:30.712Z,4.11
2023-02-06T09:55:06.958Z,4.15
2023-02-06T09:57:41.377Z,4.14
2023-02-06T10:00:47.583Z,4.26
2023-02-06T10:03:30.660Z,4.34
2023-02-06T10:06:21.478Z,4.18
2023-02-06T10:09:03.038Z,4.20
2023-02-06T10:11:45.045Z,4.33
2023-02-06T10:14:28.305Z,4.47
2023-02-06T10:17:04.665Z,4.43
2023-02-06T10:19:43.682Z,4.56
2023-02-06T10:22:16.724Z,4.73
2023-02-06T10:24:49.736Z,4.94
2023-02-06T10:27:17.194Z,4.78
2023-02-06T10:29:46.306Z,4.85
2023-02-06T10:32:34.556Z,5.20
2023-02-06T10:35:18.667Z,5.60
2023-02-06T10:38:22.913Z,5.75
2023-02-06T10:41:07.064Z,5.93
2023-02-06T10:43:55.749Z,5.89
2023-02-06T10:46:44.354Z,6.27
2023-02-06T10:49:15.079Z,6.52
2023-02-06T10:51:45.250Z,6.68
2023-02-06T10:54:18.421Z,6.91
2023-02-06T10:56:46.951Z,6.72
2023-02-06T10:59:25.177Z,7.16
2023-02-06T11:02:01.102Z,7.57
2023-02-06T11:04:36.418Z,7.64
2023-02-06T11:07:08.550Z,7.73
2023-02-06T11:09:34.980Z,7.89
2023-02-06T11:12:02.560Z,7.84
2023-02-06T11:14:35.340Z,8.45
2023-02-06T11:17:01.948Z,8.28
2023-02-06T11:19:40.286Z,8.73
2023-02-06T11:22:14.801Z,8.29
2023-02-06T11:25:28.206Z,8.59
2023-02-06T11:27:56.106Z,9.22
2023-02-06T11:30:37.957Z,9.80
2023-02-06T11:33:21.135Z,9.64
2023-02-06T11:35:54.550Z,10.37
2023-02-06T11:38:25.194Z,10.27
2023-02-06T11:41:00.716Z,10.81
2023-02-06T11:43:29.463Z,10.83
2023-02-06T11:46:26.859Z,11.16
2023-02-06T11:48:55.963Z,11.34
2023-02-06T11:51:23.917Z,11.44
2023-02-06T11:53:54.642Z,11.30
2023-02-06T11:56:21.416Z,11.54
2023-02-06T11:59:01.754Z,11.52
2023-02-06T12:01:28.336Z,11.54
2023-02-06T12:03:59.199Z,11.27
2023-02-06T12:06:40.067Z,11.26
2023-02-06T12:09:12.809Z,10.66
2023-02-06T12:11:45.643Z,11.22
2023-02-06T12:14:21.708Z,10.86
2023-02-06T12:16:50.211Z,10.46
2023-02-06T12:19:21.145Z,10.83
2023-02-06T12:21:54.092Z,10.60
2023-02-06T12:24:28.461Z,10.64
2023-02-06T12:26:55.776Z,11.17
2023-02-06T12:29:36.528Z,11.19
2023-02-06T12:32:14.651Z,11.02
2023-02-06T12:34:53.867Z,10.87
2023-02-06T12:37:39.695Z,11.20
2023-02-06T12:40:50.890Z,10.92
2023-02-06T12:43:18.903Z,10.29
2023-02-06T12:45:59.704Z,10.85
2023-02-06T12:48:37.738Z,10.77
2023-02-06T12:51:26.741Z,11.42
2023-02-06T12:54:04.087Z,11.03
2023-02-06T12:56:44.845Z,10.18
2023-02-06T12:59:29.484Z,9.31
2023-02-06T13:02:22.366Z,8.93
2023-02-06T13:04:50.616Z,8.72
2023-02-06T13:07:21.738Z,8.24
2023-02-06T13:10:06.418Z,8.20
2023-02-06T13:12:34.479Z,8.21
2023-02-06T13:15:05.818Z,8.25
2023-02-06T13:17:34.504Z,8.42
2023-02-06T13:20:07.315Z,8.08
2023-02-06T13:22:51.811Z,7.90
2023-02-06T13:25:30.217Z,7.89
2023-02-06T13:27:57.461Z,7.81
2023-02-06T13:30:23.776Z,7.64
2023-02-06T13:32:50.641Z,7.77
2023-02-06T13:35:24.313Z,7.62
2023-02-06T13:38:10.707Z,7.51
2023-02-06T13:40:37.240Z,7.61
2023-02-06T13:43:19.345Z,7.73
2023-02-06T13:45:59.226Z,7.72
2023-02-06T13:48:56.797Z,7.74
2023-02-06T13:51:52.695Z,7.88
2023-02-06T13:54:48.825Z,7.78
2023-02-06T13:57:26.642Z,7.57
2023-02-06T14:00:17.212Z,7.56
2023-02-06T14:02:54.085Z,7.51
2023-02-06T14:05:39.129Z,7.44
2023-02-06T14:08:19.854Z,7.54
2023-02-06T14:10:49.168Z,7.55
2023-02-06T14:13:28.971Z,7.43
2023-02-06T14:16:36.617Z,7.26
2023-02-06T14:19:24.974Z,7.43
2023-02-06T14:21:54.304Z,7.31
2023-02-06T14:24:22.095Z,7.34
2023-02-06T14:27:00.933Z,7.36
2023-02-06T14:29:41.458Z,7.29
2023-02-06T14:32:28.465Z,7.11
2023-02-06T14:35:19.196Z,7.19
2023-02-06T14:37:54.446Z,7.22
2023-02-06T14:40:38.944Z,7.28
2023-02-06T14:43:12.671Z,7.31
2023-02-06T14:45:42.735Z,7.28
2023-02-06T14:48:24.374Z,7.17
2023-02-06T14:50:56.435Z,7.13
2023-02-06T14:53:31.068Z,7.04
2023-02-06T14:56:13.635Z,7.08
2023-02-06T14:58:40.009Z,6.96
2023-02-06T15:01:17.506Z,7.09
2023-02-06T15:03:45.388Z,6.94
2023-02-06T15:06:15.106Z,6.91
2023-02-06T15:08:48.613Z,6.82
2023-02-06T15:11:32.184Z,6.79
2023-02-06T15:14:04.755Z,6.79
2023-02-06T15:16:32.850Z,6.77
2023-02-06T15:19:10.828Z,6.89
2023-02-06T15:21:38.283Z,6.81
2023-02-06T15:24:23.514Z,6.75
2023-02-06T15:27:01.380Z,6.67
2023-02-06T15:29:28.671Z,6.51
2023-02-06T15:32:01.213Z,6.66
2023-02-06T15:34:27.726Z,6.57
2023-02-06T15:36:54.236Z,6.53
2023-02-06T15:39:21.136Z,6.43
2023-02-06T15:41:49.783Z,6.42
2023-02-06T15:44:27.466Z,6.49
2023-02-06T15:46:56.453Z,6.36
2023-02-06T15:49:44.039Z,6.37
2023-02-06T15:52:12.216Z,6.39
2023-02-06T15:54:44.798Z,6.38
2023-02-06T15:57:16.974Z,6.27
2023-02-06T15:59:44.138Z,6.23
2023-02-06T16:02:37.793Z,6.19
2023-02-06T16:05:05.944Z,6.13
2023-02-06T16:07:35.761Z,5.97
2023-02-06T16:10:08.187Z,6.10
2023-02-06T16:12:35.991Z,6.11
2023-02-06T16:15:23.683Z,6.16
2023-02-06T16:17:50.025Z,6.05
2023-02-06T16:20:28.492Z,6.11
2023-02-06T16:22:57.084Z,5.93
2023-02-06T16:25:31.317Z,6.19
2023-02-06T16:27:59.057Z,5.93
2023-02-06T16:30:32.985Z,5.74
2023-02-06T16:33:09.405Z,5.97
2023-02-06T16:35:35.754Z,5.94
2023-02-06T16:38:02.063Z,5.83
2023-02-06T16:40:28.466Z,5.91
2023-02-06T16:42:54.916Z,5.85
2023-02-06T16:45:26.140Z,5.57
2023-02-06T16:47:53.433Z,5.55
2023-02-06T16:50:21.500Z,5.58
2023-02-06T16:52:50.906Z,5.45
2023-02-06T16:55:22.234Z,5.57
2023-02-06T16:57:52.859Z,5.45
2023-02-06T17:00:29.493Z,5.27
2023-02-06T17:02:57.356Z,5.16
2023-02-06T17:05:25.528Z,5.23
2023-02-06T17:07:52.452Z,5.23
2023-02-06T17:10:22.039Z,5.16
2023-02-06T17:12:49.196Z,5.02
2023-02-06T17:15:17.134Z,4.93
2023-02-06T17:17:44.264Z,4.85
2023-02-06T17:20:44.925Z,5.00
2023-02-06T17:23:11.770Z,4.91
2023-02-06T17:25:42.901Z,4.90
2023-02-06T17:28:12.793Z,4.95
2023-02-06T17:30:39.792Z,4.95
2023-02-06T17:33:07.008Z,4.93
2023-02-06T17:35:36.582Z,4.81
2023-02-06T17:38:05.079Z,4.90
2023-02-06T17:40:33.834Z,4.90
2023-02-06T17:43:03.867Z,4.98
2023-02-06T17:45:30.949Z,4.97
2023-02-06T17:47:57.244Z,4.92
2023-02-06T17:50:25.596Z,4.66
2023-02-06T17:52:55.402Z,4.59
2023-02-06T17:55:23.205Z,4.76
2023-02-06T17:57:50.667Z,4.76
2023-02-06T18:00:18.376Z,4.80
2023-02-06T18:02:45.024Z,4.62
2023-02-06T18:05:11.636Z,4.57
2023-02-06T18:07:38.975Z,4.71
2023-02-06T18:10:06.340Z,4.65
2023-02-06T18:12:32.781Z,4.63
2023-02-06T18:14:59.129Z,4.66
2023-02-06T18:17:25.728Z,4.53
2023-02-06T18:19:52.359Z,4.42
2023-02-06T18:22:21.412Z,4.34
2023-02-06T18:24:49.090Z,4.34
2023-02-06T18:27:16.350Z,4.21
2023-02-06T18:29:50.094Z,4.38
2023-02-06T18:32:18.092Z,4.10
2023-02-06T18:34:44.507Z,4.20
2023-02-06T18:37:10.840Z,4.06
2023-02-06T18:39:38.123Z,4.01
2023-02-06T18:42:23.297Z,3.92
2023-02-06T18:44:49.765Z,3.82
2023-02-06T18:47:17.440Z,3.89
2023-02-06T18:49:43.777Z,3.97
2023-02-06T18:52:10.157Z,4.11
2023-02-06T18:54:36.750Z,4.19
2023-02-06T18:57:10.477Z,4.30
2023-02-06T18:59:39.134Z,4.07
2023-02-06T19:02:05.616Z,3.90
2023-02-06T19:04:34.344Z,4.08
2023-02-06T19:07:00.694Z,4.03
2023-02-06T19:09:27.073Z,3.81
2023-02-06T19:11:53.765Z,3.56
2023-02-06T19:14:22.464Z,3.76
2023-02-06T19:16:50.777Z,3.96
2023-02-06T19:19:17.727Z,3.71
2023-02-06T19:21:44.576Z,3.76
2023-02-06T19:24:15.710Z,3.72
2023-02-06T19:26:42.251Z,3.61
2023-02-06T19:29:09.534Z,3.63
2023-02-06T19:31:38.897Z,3.57
2023-02-06T19:34:05.264Z,3.59
2023-02-06T19:36:31.772Z,3.54
2023-02-06T19:39:01.237Z,3.71
2023-02-06T19:41:29.522Z,3.46
2023-02-06T19:43:56.801Z,3.53
2023-02-06T19:46:25.910Z,3.42
2023-02-06T19:48:54.010Z,3.25
2023-02-06T19:51:28.754Z,3.23
2023-02-06T19:53:56.805Z,3.40
2023-02-06T19:56:25.728Z,3.24
2023-02-06T19:58:59.430Z,3.36
2023-02-06T20:01:29.421Z,3.36
2023-02-06T20:03:57.609Z,3.37
2023-02-06T20:06:23.953Z,3.25
2023-02-06T20:08:50.314Z,3.28
2023-02-06T20:11:20.706Z,3.43
2023-02-06T20:13:47.975Z,3.33
2023-02-06T20:16:17.687Z,2.96
2023-02-06T20:18:44.250Z,2.96
2023-02-06T20:21:31.509Z,2.94
2023-02-06T20:24:00.412Z,2.98
2023-02-06T20:26:29.980Z,2.98
2023-02-06T20:28:56.667Z,3.12
2023-02-06T20:31:23.418Z,2.88
2023-02-06T20:33:50.220Z,3.14
2023-02-06T20:36:19.874Z,2.85
2023-02-06T20:38:51.275Z,2.87
2023-02-06T20:41:20.834Z,2.64
2023-02-06T20:43:48.123Z,2.76
2023-02-06T20:46:18.213Z,2.95
2023-02-06T20:48:46.051Z,2.82
2023-02-06T20:51:14.046Z,2.86
2023-02-06T20:53:40.965Z,2.65
2023-02-06T20:56:16.825Z,2.89
2023-02-06T20:58:44.362Z,2.82
2023-02-06T21:01:23.032Z,2.63
2023-02-06T21:03:50.699Z,2.63
2023-02-06T21:06:17.054Z,2.70
2023-02-06T21:08:46.534Z,2.64
2023-02-06T21:11:13.404Z,2.64
2023-02-06T21:13:40.757Z,2.61
2023-02-06T21:16:08.127Z,2.51
2023-02-06T21:18:34.497Z,2.47
2023-02-06T21:21:13.640Z,2.49
2023-02-06T21:23:41.766Z,2.63
2023-02-06T21:26:10.644Z,2.55
2023-02-06T21:28:38.280Z,2.56
2023-02-06T21:31:08.104Z,2.60
2023-02-06T21:33:35.041Z,2.79
2023-02-06T21:36:06.868Z,2.85
2023-02-06T21:38:34.607Z,2.76
2023-02-06T21:41:13.378Z,2.90
2023-02-06T21:43:40.255Z,2.78
2023-02-06T21:46:06.911Z,2.67
2023-02-06T21:48:34.051Z,2.72
2023-02-06T21:51:11.831Z,2.62
2023-02-06T21:53:38.784Z,2.37
2023-02-06T21:56:07.324Z,2.58
2023-02-06T21:58:34.094Z,2.70
2023-02-06T22:01:00.696Z,2.59
2023-02-06T22:03:27.192Z,2.70
2023-02-06T22:05:53.547Z,2.75
2023-02-06T22:08:20.423Z,2.57
2023-02-06T22:10:46.753Z,2.59
2023-02-06T22:13:13.037Z,2.64
2023-02-06T22:15:39.767Z,2.60
2023-02-06T22:18:06.461Z,2.67
2023-02-06T22:20:32.841Z,2.62
2023-02-06T22:22:59.149Z,2.65
2023-02-06T22:25:26.513Z,2.57
2023-02-06T22:27:54.562Z,2.54
2023-02-06T22:30:21.096Z,2.56
2023-02-06T22:32:47.452Z,2.47
2023-02-06T22:35:13.779Z,2.42
2023-02-06T22:37:40.167Z,2.43
2023-02-06T22:40:07.170Z,2.55
2023-02-06T22:42:34.568Z,2.46
2023-02-06T22:45:00.898Z,2.57
2023-02-06T22:47:27.275Z,2.43
2023-02-06T22:49:53.602Z,2.32
2023-02-06T22:52:38.352Z,2.57
2023-02-06T22:55:05.648Z,2.47
2023-02-06T22:57:33.390Z,2.53
2023-02-06T22:59:59.693Z,2.52
2023-02-06T23:02:26.037Z,2.41
2023-02-06T23:04:52.344Z,2.39
2023-02-06T23:07:18.659Z,2.38
2023-02-06T23:09:44.962Z,2.54
2023-02-06T23:12:11.631Z,2.69
2023-02-06T23:14:37.967Z,2.60
2023-02-06T23:17:04.357Z,2.49
2023-02-06T23:19:31.306Z,2.79
2023-02-06T23:21:57.811Z,2.47
2023-02-06T23:24:24.214Z,2.42
2023-02-06T23:26:53.111Z,2.49
2023-02-06T23:29:20.669Z,2.55
2023-02-06T23:31:47.549Z,2.60
2023-02-06T23:34:14.795Z,2.49
2023-02-06T23:36:41.526Z,2.49
2023-02-06T23:39:07.849Z,2.53
2023-02-06T23:41:34.422Z,2.62
2023-02-06T23:44:06.299Z,2.69
2023-02-06T23:46:34.889Z,2.33
2023-02-06T23:49:01.253Z,2.38
2023-02-06T23:51:27.957Z,2.44
2023-02-06T23:53:54.352Z,2.58
2023-02-06T23:56:26.464Z,2.61
2023-02-06T23:58:54.136Z,2.63
